sensor_id;sensor_type;location;lat;lon;timestamp;pressure;altitude;pressure_sealevel;temperature;humidity
48553;BME280;34335;51.566;6.994;2023-11-19T00:01:48;100349.41;;;9.40;100.00
48553;BME280;34335;51.566;6.994;2023-11-19T00:04:14;100345.91;;;9.49;100.00
48553;BME280;34335;51.566;6.994;2023-11-19T00:06:39;100355.41;;;9.59;100.00
48553;BME280;34335;51.566;6.994;2023-11-19T00:09:04;100345.00;;;9.64;100.00
48553;BME280;34335;51.566;6.994;2023-11-19T00:11:30;100345.03;;;9.62;100.00
48553;BME280;34335;51.566;6.994;2023-11-19T00:13:55;100347.63;;;9.62;100.00
48553;BME280;34335;51.566;6.994;2023-11-19T00:16:20;100337.25;;;9.59;100.00
48553;BME280;34335;51.566;6.994;2023-11-19T00:18:45;100336.38;;;9.60;100.00
48553;BME280;34335;51.566;6.994;2023-11-19T00:21:11;100339.00;;;9.46;100.00
48553;BME280;34335;51.566;6.994;2023-11-19T00:23:37;100339.81;;;9.72;100.00
48553;BME280;34335;51.566;6.994;2023-11-19T00:26:02;100339.84;;;9.59;100.00
48553;BME280;34335;51.566;6.994;2023-11-19T00:28:27;100338.09;;;9.64;100.00
48553;BME280;34335;51.566;6.994;2023-11-19T00:30:53;100332.88;;;9.67;100.00
48553;BME280;34335;51.566;6.994;2023-11-19T00:33:19;100333.78;;;9.66;100.00
48553;BME280;34335;51.566;6.994;2023-11-19T00:35:44;100326.84;;;9.70;100.00
48553;BME280;34335;51.566;6.994;2023-11-19T00:38:09;100319.88;;;9.78;100.00
48553;BME280;34335;51.566;6.994;2023-11-19T00:40:35;100324.22;;;9.75;100.00
48553;BME280;34335;51.566;6.994;2023-11-19T00:43:00;100323.31;;;9.83;100.00
48553;BME280;34335;51.566;6.994;2023-11-19T00:45:25;100306.00;;;9.82;100.00
48553;BME280;34335;51.566;6.994;2023-11-19T00:47:52;100311.16;;;9.92;100.00
48553;BME280;34335;51.566;6.994;2023-11-19T00:50:17;100309.34;;;10.14;100.00
48553;BME280;34335;51.566;6.994;2023-11-19T00:52:42;100310.22;;;10.10;100.00
48553;BME280;34335;51.566;6.994;2023-11-19T00:55:08;100296.34;;;10.11;100.00
48553;BME280;34335;51.566;6.994;2023-11-19T00:57:33;100289.38;;;10.16;100.00
48553;BME280;34335;51.566;6.994;2023-11-19T00:59:59;100298.03;;;10.18;100.00
48553;BME280;34335;51.566;6.994;2023-11-19T01:02:25;100291.94;;;10.27;100.00
48553;BME280;34335;51.566;6.994;2023-11-19T01:04:50;100289.28;;;10.32;100.00
48553;BME280;34335;51.566;6.994;2023-11-19T01:07:15;100290.19;;;10.29;100.00
48553;BME280;34335;51.566;6.994;2023-11-19T01:09:44;100295.34;;;10.35;100.00
48553;BME280;34335;51.566;6.994;2023-11-19T01:12:09;100287.56;;;10.34;100.00
48553;BME280;34335;51.566;6.994;2023-11-19T01:14:38;100297.91;;;10.37;100.00
48553;BME280;34335;51.566;6.994;2023-11-19T01:17:03;100300.47;;;10.46;100.00
48553;BME280;34335;51.566;6.994;2023-11-19T01:19:30;100307.34;;;10.56;100.00
48553;BME280;34335;51.566;6.994;2023-11-19T01:21:55;100309.97;;;10.52;100.00
48553;BME280;34335;51.566;6.994;2023-11-19T01:24:21;100298.66;;;10.60;100.00
48553;BME280;34335;51.566;6.994;2023-11-19T01:26:46;100296.00;;;10.67;100.00
48553;BME280;34335;51.566;6.994;2023-11-19T01:29:15;100294.19;;;10.75;100.00
48553;BME280;34335;51.566;6.994;2023-11-19T01:31:41;100295.97;;;10.70;100.00
48553;BME280;34335;51.566;6.994;2023-11-19T01:34:06;100300.25;;;10.77;100.00
48553;BME280;34335;51.566;6.994;2023-11-19T01:36:32;100305.50;;;10.72;100.00
48553;BME280;34335;51.566;6.994;2023-11-19T01:38:57;100314.16;;;10.71;100.00
48553;BME280;34335;51.566;6.994;2023-11-19T01:41:22;100292.47;;;10.75;100.00
48553;BME280;34335;51.566;6.994;2023-11-19T01:43:48;100291.47;;;10.89;100.00
48553;BME280;34335;51.566;6.994;2023-11-19T01:46:13;100282.00;;;10.85;100.00
48553;BME280;34335;51.566;6.994;2023-11-19T01:48:42;100285.44;;;10.85;100.00
48553;BME280;34335;51.566;6.994;2023-11-19T01:51:09;100282.81;;;10.88;100.00
48553;BME280;34335;51.566;6.994;2023-11-19T01:53:36;100277.59;;;10.90;100.00
48553;BME280;34335;51.566;6.994;2023-11-19T01:56:04;100266.38;;;10.85;100.00
48553;BME280;34335;51.566;6.994;2023-11-19T01:58:30;100248.09;;;10.91;100.00
48553;BME280;34335;51.566;6.994;2023-11-19T02:00:56;100249.78;;;10.97;100.00
48553;BME280;34335;51.566;6.994;2023-11-19T02:03:22;100246.28;;;10.99;100.00
48553;BME280;34335;51.566;6.994;2023-11-19T02:05:51;100251.47;;;11.02;100.00
48553;BME280;34335;51.566;6.994;2023-11-19T02:08:18;100255.84;;;10.99;100.00
48553;BME280;34335;51.566;6.994;2023-11-19T02:10:43;100244.56;;;11.00;100.00
48553;BME280;34335;51.566;6.994;2023-11-19T02:13:08;100239.28;;;11.06;100.00
48553;BME280;34335;51.566;6.994;2023-11-19T02:15:35;100231.44;;;11.09;100.00
48553;BME280;34335;51.566;6.994;2023-11-19T02:18:20;100233.06;;;11.21;100.00
48553;BME280;34335;51.566;6.994;2023-11-19T02:20:45;100242.69;;;11.11;100.00
48553;BME280;34335;51.566;6.994;2023-11-19T02:23:12;100242.59;;;11.19;100.00
48553;BME280;34335;51.566;6.994;2023-11-19T02:25:38;100250.44;;;11.17;100.00
48553;BME280;34335;51.566;6.994;2023-11-19T02:28:04;100246.97;;;11.18;100.00
48553;BME280;34335;51.566;6.994;2023-11-19T02:30:30;100240.84;;;11.21;100.00
48553;BME280;34335;51.566;6.994;2023-11-19T02:32:58;100240.00;;;11.20;100.00
48553;BME280;34335;51.566;6.994;2023-11-19T02:35:26;100234.75;;;11.23;100.00
48553;BME280;34335;51.566;6.994;2023-11-19T02:37:51;100229.59;;;11.20;100.00
48553;BME280;34335;51.566;6.994;2023-11-19T02:40:16;100229.56;;;11.25;100.00
48553;BME280;34335;51.566;6.994;2023-11-19T02:42:42;100233.06;;;11.19;100.00
48553;BME280;34335;51.566;6.994;2023-11-19T02:45:08;100234.75;;;11.23;100.00
48553;BME280;34335;51.566;6.994;2023-11-19T02:47:38;100240.78;;;11.29;100.00
48553;BME280;34335;51.566;6.994;2023-11-19T02:50:04;100233.00;;;11.26;100.00
48553;BME280;34335;51.566;6.994;2023-11-19T02:52:32;100226.88;;;11.28;100.00
48553;BME280;34335;51.566;6.994;2023-11-19T02:55:02;100224.22;;;11.34;100.00
48553;BME280;34335;51.566;6.994;2023-11-19T02:57:31;100230.34;;;11.30;100.00
48553;BME280;34335;51.566;6.994;2023-11-19T02:59:57;100223.47;;;11.25;100.00
48553;BME280;34335;51.566;6.994;2023-11-19T03:02:23;100231.31;;;11.23;100.00
48553;BME280;34335;51.566;6.994;2023-11-19T03:04:58;100222.59;;;11.26;100.00
48553;BME280;34335;51.566;6.994;2023-11-19T03:07:24;100219.09;;;11.27;100.00
48553;BME280;34335;51.566;6.994;2023-11-19T03:09:49;100214.69;;;11.32;100.00
48553;BME280;34335;51.566;6.994;2023-11-19T03:12:14;100213.78;;;11.36;100.00
48553;BME280;34335;51.566;6.994;2023-11-19T03:14:40;100226.84;;;11.33;100.00
48553;BME280;34335;51.566;6.994;2023-11-19T03:17:05;100225.09;;;11.35;100.00
48553;BME280;34335;51.566;6.994;2023-11-19T03:19:31;100210.31;;;11.35;100.00
48553;BME280;34335;51.566;6.994;2023-11-19T03:21:56;100193.81;;;11.36;100.00
48553;BME280;34335;51.566;6.994;2023-11-19T03:24:21;100204.22;;;11.38;100.00
48553;BME280;34335;51.566;6.994;2023-11-19T03:26:50;100215.47;;;11.40;100.00
48553;BME280;34335;51.566;6.994;2023-11-19T03:29:15;100223.28;;;11.42;100.00
48553;BME280;34335;51.566;6.994;2023-11-19T03:31:43;100233.75;;;11.37;100.00
48553;BME280;34335;51.566;6.994;2023-11-19T03:34:10;100233.66;;;11.43;100.00
48553;BME280;34335;51.566;6.994;2023-11-19T03:36:35;100218.19;;;11.32;100.00
48553;BME280;34335;51.566;6.994;2023-11-19T03:39:00;100225.94;;;11.37;100.00
48553;BME280;34335;51.566;6.994;2023-11-19T03:41:26;100213.78;;;11.36;100.00
48553;BME280;34335;51.566;6.994;2023-11-19T03:43:51;100221.63;;;11.34;100.00
48553;BME280;34335;51.566;6.994;2023-11-19T03:48:42;100222.50;;;11.32;100.00
48553;BME280;34335;51.566;6.994;2023-11-19T03:51:08;100229.44;;;11.34;100.00
48553;BME280;34335;51.566;6.994;2023-11-19T03:53:34;100230.34;;;11.30;100.00
48553;BME280;34335;51.566;6.994;2023-11-19T03:55:59;100234.63;;;11.36;100.00
48553;BME280;34335;51.566;6.994;2023-11-19T03:58:24;100235.50;;;11.35;100.00
48553;BME280;34335;51.566;6.994;2023-11-19T04:00:49;100236.41;;;11.31;100.00
48553;BME280;34335;51.566;6.994;2023-11-19T04:03:15;100226.84;;;11.33;100.00
48553;BME280;34335;51.566;6.994;2023-11-19T04:05:40;100242.50;;;11.30;100.00
48553;BME280;34335;51.566;6.994;2023-11-19T04:08:05;100231.16;;;11.34;100.00
48553;BME280;34335;51.566;6.994;2023-11-19T04:10:30;100221.63;;;11.34;100.00
48553;BME280;34335;51.566;6.994;2023-11-19T04:12:56;100231.13;;;11.37;100.00
48553;BME280;34335;51.566;6.994;2023-11-19T04:15:21;100230.38;;;11.27;100.00
48553;BME280;34335;51.566;6.994;2023-11-19T04:17:47;100225.97;;;11.31;100.00
48553;BME280;34335;51.566;6.994;2023-11-19T04:20:31;100226.03;;;11.28;100.00
48553;BME280;34335;51.566;6.994;2023-11-19T04:22:57;100215.63;;;11.28;100.00
48553;BME280;34335;51.566;6.994;2023-11-19T04:25:22;100233.06;;;11.19;100.00
48553;BME280;34335;51.566;6.994;2023-11-19T04:27:47;100224.50;;;11.10;100.00
48553;BME280;34335;51.566;6.994;2023-11-19T04:30:13;100227.09;;;11.10;100.00
48553;BME280;34335;51.566;6.994;2023-11-19T04:32:38;100233.31;;;10.96;100.00
48553;BME280;34335;51.566;6.994;2023-11-19T04:35:04;100237.63;;;10.97;100.00
48553;BME280;34335;51.566;6.994;2023-11-19T04:37:31;100242.88;;;10.93;100.00
48553;BME280;34335;51.566;6.994;2023-11-19T04:39:57;100251.66;;;10.81;100.00
48553;BME280;34335;51.566;6.994;2023-11-19T04:42:22;100249.00;;;10.87;100.00
48553;BME280;34335;51.566;6.994;2023-11-19T04:44:48;100233.41;;;10.85;100.00
48553;BME280;34335;51.566;6.994;2023-11-19T04:47:13;100228.22;;;10.85;100.00
48553;BME280;34335;51.566;6.994;2023-11-19T04:49:42;100234.31;;;10.83;100.00
48553;BME280;34335;51.566;6.994;2023-11-19T04:52:08;100236.03;;;10.82;100.00
48553;BME280;34335;51.566;6.994;2023-11-19T04:54:33;100238.63;;;10.85;100.00
48553;BME280;34335;51.566;6.994;2023-11-19T04:56:59;100246.38;;;10.90;100.00
48553;BME280;34335;51.566;6.994;2023-11-19T04:59:24;100237.72;;;10.89;100.00
48553;BME280;34335;51.566;6.994;2023-11-19T05:01:49;100254.22;;;10.85;100.00
48553;BME280;34335;51.566;6.994;2023-11-19T05:04:15;100235.13;;;10.88;100.00
48553;BME280;34335;51.566;6.994;2023-11-19T05:06:41;100244.66;;;10.89;100.00
48553;BME280;34335;51.566;6.994;2023-11-19T05:09:06;100240.28;;;10.94;100.00
48553;BME280;34335;51.566;6.994;2023-11-19T05:11:35;100243.75;;;10.93;100.00
48553;BME280;34335;51.566;6.994;2023-11-19T05:14:02;100244.63;;;10.92;100.00
48553;BME280;34335;51.566;6.994;2023-11-19T05:16:29;100249.84;;;10.90;100.00
48553;BME280;34335;51.566;6.994;2023-11-19T05:18:54;100253.28;;;10.94;100.00
48553;BME280;34335;51.566;6.994;2023-11-19T05:21:19;100253.22;;;10.97;100.00
48553;BME280;34335;51.566;6.994;2023-11-19T05:23:45;100249.66;;;11.07;100.00
48553;BME280;34335;51.566;6.994;2023-11-19T05:26:20;100238.44;;;11.04;100.00
48553;BME280;34335;51.566;6.994;2023-11-19T05:28:46;100242.84;;;10.99;100.00
48553;BME280;34335;51.566;6.994;2023-11-19T05:31:12;100245.38;;;11.02;100.00
48553;BME280;34335;51.566;6.994;2023-11-19T05:33:37;100241.81;;;11.12;100.00
48553;BME280;34335;51.566;6.994;2023-11-19T05:36:03;100237.47;;;11.11;100.00
48553;BME280;34335;51.566;6.994;2023-11-19T05:38:29;100229.66;;;11.11;100.00
48553;BME280;34335;51.566;6.994;2023-11-19T05:40:54;100243.63;;;11.05;100.00
48553;BME280;34335;51.566;6.994;2023-11-19T05:43:20;100240.19;;;11.02;100.00
48553;BME280;34335;51.566;6.994;2023-11-19T05:45:46;100236.59;;;11.12;100.00
48553;BME280;34335;51.566;6.994;2023-11-19T05:48:11;100232.41;;;11.00;100.00
48553;BME280;34335;51.566;6.994;2023-11-19T05:50:37;100247.97;;;11.05;100.00
48553;BME280;34335;51.566;6.994;2023-11-19T05:53:02;100240.06;;;11.14;100.00
48553;BME280;34335;51.566;6.994;2023-11-19T05:55:30;100242.78;;;11.03;100.00
48553;BME280;34335;51.566;6.994;2023-11-19T05:57:56;100247.09;;;11.03;100.00
48553;BME280;34335;51.566;6.994;2023-11-19T06:00:21;100248.78;;;11.12;100.00
48553;BME280;34335;51.566;6.994;2023-11-19T06:02:46;100246.13;;;11.16;100.00
48553;BME280;34335;51.566;6.994;2023-11-19T06:05:12;100237.63;;;10.99;100.00
48553;BME280;34335;51.566;6.994;2023-11-19T06:07:37;100239.44;;;10.92;100.00
48553;BME280;34335;51.566;6.994;2023-11-19T06:10:04;100243.81;;;10.85;100.00
48553;BME280;34335;51.566;6.994;2023-11-19T06:12:33;100246.44;;;10.84;100.00
48553;BME280;34335;51.566;6.994;2023-11-19T06:14:59;100250.91;;;10.71;100.00
48553;BME280;34335;51.566;6.994;2023-11-19T06:17:24;100252.53;;;10.80;100.00
48553;BME280;34335;51.566;6.994;2023-11-19T06:19:50;100258.63;;;10.77;100.00
48553;BME280;34335;51.566;6.994;2023-11-19T06:22:16;100251.66;;;10.84;100.00
48553;BME280;34335;51.566;6.994;2023-11-19T06:24:41;100264.72;;;10.76;100.00
48553;BME280;34335;51.566;6.994;2023-11-19T06:27:06;100260.31;;;10.83;100.00
48553;BME280;34335;51.566;6.994;2023-11-19T06:29:32;100269.84;;;10.85;100.00
48553;BME280;34335;51.566;6.994;2023-11-19T06:31:57;100256.00;;;10.79;100.00
48553;BME280;34335;51.566;6.994;2023-11-19T06:34:22;100255.16;;;10.81;100.00
48553;BME280;34335;51.566;6.994;2023-11-19T06:36:48;100251.72;;;10.76;100.00
48553;BME280;34335;51.566;6.994;2023-11-19T06:39:13;100255.19;;;10.77;100.00
48553;BME280;34335;51.566;6.994;2023-11-19T06:41:44;100256.06;;;10.74;100.00
48553;BME280;34335;51.566;6.994;2023-11-19T06:44:09;100264.78;;;10.67;100.00
48553;BME280;34335;51.566;6.994;2023-11-19T06:46:35;100261.31;;;10.71;100.00
48553;BME280;34335;51.566;6.994;2023-11-19T06:49:00;100268.22;;;10.70;100.00
48553;BME280;34335;51.566;6.994;2023-11-19T06:51:26;100274.22;;;10.79;100.00
48553;BME280;34335;51.566;6.994;2023-11-19T06:53:52;100287.22;;;10.80;100.00
48553;BME280;34335;51.566;6.994;2023-11-19T06:56:22;100283.78;;;10.78;100.00
48553;BME280;34335;51.566;6.994;2023-11-19T06:58:48;100286.47;;;10.66;100.00
48553;BME280;34335;51.566;6.994;2023-11-19T07:01:17;100290.81;;;10.67;100.00
48553;BME280;34335;51.566;6.994;2023-11-19T07:03:44;100289.94;;;10.66;100.00
48553;BME280;34335;51.566;6.994;2023-11-19T07:06:11;100282.09;;;10.71;100.00
48553;BME280;34335;51.566;6.994;2023-11-19T07:08:38;100279.47;;;10.74;100.00
48553;BME280;34335;51.566;6.994;2023-11-19T07:11:03;100282.16;;;10.66;100.00
48553;BME280;34335;51.566;6.994;2023-11-19T07:13:29;100279.50;;;10.69;100.00
48553;BME280;34335;51.566;6.994;2023-11-19T07:15:55;100294.28;;;10.66;100.00
48553;BME280;34335;51.566;6.994;2023-11-19T07:18:21;100291.69;;;10.64;100.00
48553;BME280;34335;51.566;6.994;2023-11-19T07:20:48;100287.38;;;10.62;100.00
48553;BME280;34335;51.566;6.994;2023-11-19T07:23:13;100300.38;;;10.62;100.00
48553;BME280;34335;51.566;6.994;2023-11-19T07:25:42;100292.63;;;10.54;100.00
48553;BME280;34335;51.566;6.994;2023-11-19T07:28:08;100305.56;;;10.66;100.00
48553;BME280;34335;51.566;6.994;2023-11-19T07:30:35;100308.97;;;10.68;100.00
48553;BME280;34335;51.566;6.994;2023-11-19T07:33:00;100314.25;;;10.60;100.00
48553;BME280;34335;51.566;6.994;2023-11-19T07:35:26;100320.38;;;10.55;100.00
48553;BME280;34335;51.566;6.994;2023-11-19T07:37:51;100318.63;;;10.54;100.00
48553;BME280;34335;51.566;6.994;2023-11-19T07:40:17;100317.75;;;10.55;100.00
48553;BME280;34335;51.566;6.994;2023-11-19T07:42:42;100319.53;;;10.48;100.00
48553;BME280;34335;51.566;6.994;2023-11-19T07:45:07;100326.47;;;10.49;100.00
48553;BME280;34335;51.566;6.994;2023-11-19T07:47:33;100335.06;;;10.59;100.00
48553;BME280;34335;51.566;6.994;2023-11-19T07:49:59;100328.06;;;10.66;100.00
48553;BME280;34335;51.566;6.994;2023-11-19T07:52:24;100318.53;;;10.71;100.00
48553;BME280;34335;51.566;6.994;2023-11-19T07:54:50;100323.78;;;10.63;100.00
48553;BME280;34335;51.566;6.994;2023-11-19T07:57:15;100337.63;;;10.62;100.00
48553;BME280;34335;51.566;6.994;2023-11-19T07:59:40;100342.81;;;10.67;100.00
48553;BME280;34335;51.566;6.994;2023-11-19T08:02:06;100350.66;;;10.62;100.00
48553;BME280;34335;51.566;6.994;2023-11-19T08:04:31;100342.81;;;10.67;100.00
48553;BME280;34335;51.566;6.994;2023-11-19T08:06:56;100347.13;;;10.68;100.00
48553;BME280;34335;51.566;6.994;2023-11-19T08:09:22;100334.97;;;10.68;100.00
48553;BME280;34335;51.566;6.994;2023-11-19T08:11:48;100351.50;;;10.67;100.00
48553;BME280;34335;51.566;6.994;2023-11-19T08:14:13;100346.28;;;10.69;100.00
48553;BME280;34335;51.566;6.994;2023-11-19T08:16:39;100352.38;;;10.66;100.00
48553;BME280;34335;51.566;6.994;2023-11-19T08:19:05;100354.13;;;10.61;100.00
48553;BME280;34335;51.566;6.994;2023-11-19T08:21:30;100354.13;;;10.63;100.00
48553;BME280;34335;51.566;6.994;2023-11-19T08:23:56;100348.00;;;10.67;100.00
48553;BME280;34335;51.566;6.994;2023-11-19T08:26:21;100352.31;;;10.69;100.00
48553;BME280;34335;51.566;6.994;2023-11-19T08:28:46;100367.91;;;10.74;100.00
48553;BME280;34335;51.566;6.994;2023-11-19T08:31:12;100369.63;;;10.75;100.00
48553;BME280;34335;51.566;6.994;2023-11-19T08:33:37;100367.00;;;10.78;100.00
48553;BME280;34335;51.566;6.994;2023-11-19T08:36:03;100362.66;;;10.79;100.00
48553;BME280;34335;51.566;6.994;2023-11-19T08:38:29;100360.06;;;10.80;100.00
48553;BME280;34335;51.566;6.994;2023-11-19T08:40:55;100356.63;;;10.77;100.00
48553;BME280;34335;51.566;6.994;2023-11-19T08:43:25;100367.91;;;10.75;100.00
48553;BME280;34335;51.566;6.994;2023-11-19T08:45:51;100354.88;;;10.74;100.00
48553;BME280;34335;51.566;6.994;2023-11-19T08:48:16;100354.88;;;10.74;100.00
48553;BME280;34335;51.566;6.994;2023-11-19T08:50:41;100349.69;;;10.77;100.00
48553;BME280;34335;51.566;6.994;2023-11-19T08:53:06;100360.00;;;10.86;100.00
48553;BME280;34335;51.566;6.994;2023-11-19T08:55:32;100355.63;;;10.90;100.00
48553;BME280;34335;51.566;6.994;2023-11-19T08:57:57;100358.25;;;10.91;100.00
48553;BME280;34335;51.566;6.994;2023-11-19T09:00:23;100348.63;;;11.00;100.00
48553;BME280;34335;51.566;6.994;2023-11-19T09:02:48;100357.31;;;10.99;100.00
48553;BME280;34335;51.566;6.994;2023-11-19T09:05:13;100359.00;;;11.04;100.00
48553;BME280;34335;51.566;6.994;2023-11-19T09:07:39;100372.78;;;11.14;100.00
48553;BME280;34335;51.566;6.994;2023-11-19T09:10:04;100372.91;;;11.03;100.00
48553;BME280;34335;51.566;6.994;2023-11-19T09:12:31;100354.63;;;11.08;100.00
48553;BME280;34335;51.566;6.994;2023-11-19T09:14:56;100357.16;;;11.16;100.00
48553;BME280;34335;51.566;6.994;2023-11-19T09:17:21;100360.59;;;11.18;100.00
48553;BME280;34335;51.566;6.994;2023-11-19T09:19:46;100364.94;;;11.20;100.00
48553;BME280;34335;51.566;6.994;2023-11-19T09:22:12;100356.31;;;11.15;100.00
48553;BME280;34335;51.566;6.994;2023-11-19T09:24:37;100363.19;;;11.21;100.00
48553;BME280;34335;51.566;6.994;2023-11-19T09:27:03;100362.34;;;11.19;100.00
48553;BME280;34335;51.566;6.994;2023-11-19T09:29:31;100344.06;;;11.23;100.00
48553;BME280;34335;51.566;6.994;2023-11-19T09:31:56;100361.44;;;11.21;100.00
48553;BME280;34335;51.566;6.994;2023-11-19T09:34:22;100362.31;;;11.22;100.00
48553;BME280;34335;51.566;6.994;2023-11-19T09:36:47;100363.19;;;11.24;100.00
48553;BME280;34335;51.566;6.994;2023-11-19T09:39:13;100364.91;;;11.25;100.00
48553;BME280;34335;51.566;6.994;2023-11-19T09:41:40;100362.31;;;11.25;100.00
48553;BME280;34335;51.566;6.994;2023-11-19T09:44:05;100362.31;;;11.22;100.00
48553;BME280;34335;51.566;6.994;2023-11-19T09:46:32;100366.66;;;11.21;100.00
48553;BME280;34335;51.566;6.994;2023-11-19T09:48:59;100363.16;;;11.26;100.00
48553;BME280;34335;51.566;6.994;2023-11-19T09:51:24;100367.50;;;11.23;100.00
48553;BME280;34335;51.566;6.994;2023-11-19T09:53:50;100353.59;;;11.28;100.00
48553;BME280;34335;51.566;6.994;2023-11-19T09:56:15;100352.72;;;11.27;100.00
48553;BME280;34335;51.566;6.994;2023-11-19T09:58:42;100354.44;;;11.28;100.00
48553;BME280;34335;51.566;6.994;2023-11-19T10:01:07;100361.31;;;11.35;100.00
48553;BME280;34335;51.566;6.994;2023-11-19T10:03:35;100352.59;;;11.40;100.00
48553;BME280;34335;51.566;6.994;2023-11-19T10:06:07;100349.88;;;11.50;100.00
48553;BME280;34335;51.566;6.994;2023-11-19T10:08:33;100345.56;;;11.51;100.00
48553;BME280;34335;51.566;6.994;2023-11-19T10:10:58;100342.03;;;11.57;100.00
48553;BME280;34335;51.566;6.994;2023-11-19T10:13:28;100342.03;;;11.57;100.00
48553;BME280;34335;51.566;6.994;2023-11-19T10:15:55;100330.69;;;11.59;100.00
48553;BME280;34335;51.566;6.994;2023-11-19T10:18:27;100343.69;;;11.62;100.00
48553;BME280;34335;51.566;6.994;2023-11-19T10:20:52;100348.97;;;11.58;100.00
48553;BME280;34335;51.566;6.994;2023-11-19T10:23:18;100341.09;;;11.61;100.00
48553;BME280;34335;51.566;6.994;2023-11-19T10:25:44;100339.38;;;11.61;100.00
48553;BME280;34335;51.566;6.994;2023-11-19T10:28:09;100342.75;;;11.66;100.00
48553;BME280;34335;51.566;6.994;2023-11-19T10:30:35;100343.47;;;11.82;100.00
48553;BME280;34335;51.566;6.994;2023-11-19T10:33:08;100343.53;;;11.75;100.00
48553;BME280;34335;51.566;6.994;2023-11-19T10:35:35;100340.91;;;11.78;100.00
48553;BME280;34335;51.566;6.994;2023-11-19T10:38:13;100331.41;;;11.75;100.00
48553;BME280;34335;51.566;6.994;2023-11-19T10:40:38;100327.09;;;11.69;100.00
48553;BME280;34335;51.566;6.994;2023-11-19T10:43:07;100326.22;;;11.69;100.00
48553;BME280;34335;51.566;6.994;2023-11-19T10:45:33;100322.78;;;11.68;100.00
48553;BME280;34335;51.566;6.994;2023-11-19T10:47:59;100333.13;;;11.76;100.00
48553;BME280;34335;51.566;6.994;2023-11-19T10:50:24;100329.56;;;11.80;100.00
48553;BME280;34335;51.566;6.994;2023-11-19T10:52:54;100334.75;;;11.83;100.00
48553;BME280;34335;51.566;6.994;2023-11-19T10:55:26;100334.72;;;11.88;100.00
48553;BME280;34335;51.566;6.994;2023-11-19T10:57:52;100325.97;;;11.92;100.00
48553;BME280;34335;51.566;6.994;2023-11-19T11:00:21;100331.13;;;11.95;100.00
48553;BME280;34335;51.566;6.994;2023-11-19T11:02:50;100324.22;;;11.93;100.00
48553;BME280;34335;51.566;6.994;2023-11-19T11:05:20;100325.06;;;11.93;100.00
48553;BME280;34335;51.566;6.994;2023-11-19T11:07:49;100326.03;;;11.88;100.00
48553;BME280;34335;51.566;6.994;2023-11-19T11:10:16;100326.06;;;11.84;100.00
48553;BME280;34335;51.566;6.994;2023-11-19T11:12:43;100323.47;;;11.84;100.00
48553;BME280;34335;51.566;6.994;2023-11-19T11:15:11;100328.66;;;11.86;100.00
48553;BME280;34335;51.566;6.994;2023-11-19T11:17:41;100329.56;;;11.83;100.00
48553;BME280;34335;51.566;6.994;2023-11-19T11:20:08;100320.84;;;11.84;100.00
48553;BME280;34335;51.566;6.994;2023-11-19T11:22:44;100324.25;;;11.90;100.00
48553;BME280;34335;51.566;6.994;2023-11-19T11:25:27;100318.09;;;11.97;100.00
48553;BME280;34335;51.566;6.994;2023-11-19T11:28:11;100325.91;;;12.00;100.00
48553;BME280;34335;51.566;6.994;2023-11-19T11:31:03;100323.31;;;11.98;100.00
48553;BME280;34335;51.566;6.994;2023-11-19T11:36:19;100321.53;;;12.02;100.00
48553;BME280;34335;51.566;6.994;2023-11-19T11:38:48;100324.09;;;12.05;100.00
48553;BME280;34335;51.566;6.994;2023-11-19T11:41:21;100308.34;;;12.14;100.00
48553;BME280;34335;51.566;6.994;2023-11-19T11:48:58;100295.25;;;12.18;100.00
48553;BME280;34335;51.566;6.994;2023-11-19T11:54:14;100289.97;;;12.24;100.00
48553;BME280;34335;51.566;6.994;2023-11-19T11:57:07;100289.88;;;12.30;100.00
48553;BME280;34335;51.566;6.994;2023-11-19T11:59:46;100287.22;;;12.33;100.00
48553;BME280;34335;51.566;6.994;2023-11-19T12:02:14;100280.81;;;12.54;100.00
48553;BME280;34335;51.566;6.994;2023-11-19T12:04:41;100274.47;;;12.69;100.00
48553;BME280;34335;51.566;6.994;2023-11-19T12:07:16;100289.09;;;12.80;100.00
48553;BME280;34335;51.566;6.994;2023-11-19T12:09:42;100282.41;;;12.63;100.00
48553;BME280;34335;51.566;6.994;2023-11-19T12:15:12;100290.38;;;12.52;100.00
48553;BME280;34335;51.566;6.994;2023-11-19T12:17:47;100285.25;;;12.47;100.00
48553;BME280;34335;51.566;6.994;2023-11-19T12:20:14;100278.28;;;12.50;100.00
48553;BME280;34335;51.566;6.994;2023-11-19T12:22:42;100268.59;;;12.56;100.00
48553;BME280;34335;51.566;6.994;2023-11-19T12:25:10;100272.84;;;12.63;100.00
48553;BME280;34335;51.566;6.994;2023-11-19T12:27:36;100269.44;;;12.57;100.00
48553;BME280;34335;51.566;6.994;2023-11-19T12:30:02;100261.78;;;12.49;100.00
48553;BME280;34335;51.566;6.994;2023-11-19T12:32:43;100269.66;;;12.44;100.00
48553;BME280;34335;51.566;6.994;2023-11-19T12:35:10;100258.28;;;12.49;100.00
48553;BME280;34335;51.566;6.994;2023-11-19T12:37:44;100264.50;;;12.41;100.00
48553;BME280;34335;51.566;6.994;2023-11-19T12:40:21;100254.97;;;12.37;100.00
48553;BME280;34335;51.566;6.994;2023-11-19T12:42:46;100249.84;;;12.34;100.00
48553;BME280;34335;51.566;6.994;2023-11-19T12:45:12;100275.31;;;12.17;100.00
48553;BME280;34335;51.566;6.994;2023-11-19T12:47:42;100274.69;;;11.94;100.00
48553;BME280;34335;51.566;6.994;2023-11-19T12:50:08;100274.31;;;11.55;100.00
48553;BME280;34335;51.566;6.994;2023-11-19T12:52:37;100245.03;;;11.36;100.00
48553;BME280;34335;51.566;6.994;2023-11-19T12:55:04;100265.97;;;11.23;100.00